createdAt,value
2023-02-15T00:02:03.791Z,99468.28
2023-02-15T00:04:47.187Z,99469.78
2023-02-15T00:07:19.825Z,99468.28
2023-02-15T00:09:47.663Z,99468.28
2023-02-15T00:12:15.430Z,99465.59
2023-02-15T00:14:43.700Z,99465.31
2023-02-15T00:17:10.852Z,99464.44
2023-02-15T00:19:38.059Z,99464.09
2023-02-15T00:22:05.675Z,99456.03
2023-02-15T00:24:33.232Z,99467.59
2023-02-15T00:27:00.375Z,99453.06
2023-02-15T00:29:27.491Z,99453.47
2023-02-15T00:31:54.743Z,99449.66
2023-02-15T00:34:24.097Z,99445.72
2023-02-15T00:36:52.340Z,99445.66
2023-02-15T00:39:19.838Z,99442.56
2023-02-15T00:41:47.592Z,99438.00
2023-02-15T00:44:15.297Z,99443.38
2023-02-15T00:46:42.791Z,99431.38
2023-02-15T00:49:10.501Z,99436.69
2023-02-15T00:51:37.563Z,99438.06
2023-02-15T00:54:04.745Z,99443.78
2023-02-15T00:56:32.173Z,99439.84
2023-02-15T00:58:59.330Z,99440.94
2023-02-15T01:01:26.889Z,99435.22
2023-02-15T01:03:54.337Z,99438.75
2023-02-15T01:06:21.790Z,99428.75
2023-02-15T01:08:49.131Z,99431.84
2023-02-15T01:11:24.172Z,99435.78
2023-02-15T01:13:57.826Z,99444.63
2023-02-15T01:16:27.265Z,99439.94
2023-02-15T01:18:56.017Z,99435.22
2023-02-15T01:21:24.815Z,99432.09
2023-02-15T01:23:51.866Z,99429.69
2023-02-15T01:26:20.007Z,99424.31
2023-02-15T01:28:47.112Z,99422.03
2023-02-15T01:31:16.425Z,99424.31
2023-02-15T01:33:43.750Z,99419.25
2023-02-15T01:36:11.089Z,99411.19
2023-02-15T01:38:38.279Z,99410.56
2023-02-15T01:41:25.002Z,99413.00
2023-02-15T01:43:57.811Z,99402.53
2023-02-15T01:46:32.379Z,99398.13
2023-02-15T01:49:09.816Z,99394.56
2023-02-15T01:51:37.971Z,99388.41
2023-02-15T01:54:28.932Z,99380.75
2023-02-15T01:56:57.891Z,99385.03
2023-02-15T01:59:26.279Z,99380.41
2023-02-15T02:01:56.166Z,99378.56
2023-02-15T02:04:29.264Z,99381.66
2023-02-15T02:06:58.422Z,99375.94
2023-02-15T02:09:25.730Z,99374.06
2023-02-15T02:11:55.138Z,99372.56
2023-02-15T02:14:22.816Z,99370.28
2023-02-15T02:17:16.612Z,99367.66
2023-02-15T02:20:28.849Z,99359.25
2023-02-15T02:23:17.060Z,99365.88
2023-02-15T02:26:10.008Z,99360.91
2023-02-15T02:29:01.137Z,99360.63
2023-02-15T02:31:40.488Z,99357.22
2023-02-15T02:34:33.719Z,99355.81
2023-02-15T02:37:09.324Z,99341.59
2023-02-15T02:39:48.567Z,99342.28
2023-02-15T02:42:34.130Z,99342.03
2023-02-15T02:45:04.959Z,99333.66
2023-02-15T02:47:37.966Z,99335.25
2023-02-15T02:50:08.113Z,99337.16
2023-02-15T02:52:39.876Z,99331.41
2023-02-15T02:55:11.724Z,99335.66
2023-02-15T02:57:43.851Z,99327.25
2023-02-15T03:00:11.554Z,99329.94
2023-02-15T03:02:41.870Z,99325.03
2023-02-15T03:05:15.309Z,99319.25
2023-02-15T03:07:43.063Z,99327.72
2023-02-15T03:10:10.676Z,99326.56
2023-02-15T03:12:40.380Z,99326.19
2023-02-15T03:15:20.746Z,99324.69
2023-02-15T03:17:59.651Z,99317.47
2023-02-15T03:20:31.295Z,99314.78
2023-02-15T03:23:12.050Z,99316.75
2023-02-15T03:25:42.000Z,99315.66
2023-02-15T03:28:13.164Z,99315.25
2023-02-15T03:30:41.070Z,99319.19
2023-02-15T03:33:08.637Z,99317.66
2023-02-15T03:35:48.488Z,99324.72
2023-02-15T03:38:19.302Z,99318.59
2023-02-15T03:41:06.784Z,99318.59
2023-02-15T03:43:42.428Z,99315.09
2023-02-15T03:46:29.022Z,99317.78
2023-02-15T03:49:02.365Z,99312.03
2023-02-15T03:51:36.247Z,99311.66
2023-02-15T03:54:09.166Z,99311.72
2023-02-15T03:56:38.284Z,99305.56
2023-02-15T03:59:24.351Z,99304.75
2023-02-15T04:02:29.561Z,99307.09
2023-02-15T04:04:56.602Z,99304.91
2023-02-15T04:07:23.660Z,99303.00
2023-02-15T04:10:09.303Z,99305.00
2023-02-15T04:12:36.654Z,99302.75
2023-02-15T04:15:22.402Z,99305.06
2023-02-15T04:17:49.429Z,99310.38
2023-02-15T04:20:35.198Z,99310.38
2023-02-15T04:23:20.702Z,99303.34
2023-02-15T04:25:47.932Z,99302.25
2023-02-15T04:28:14.964Z,99298.81
2023-02-15T04:30:42.015Z,99295.03
2023-02-15T04:33:09.244Z,99300.81
2023-02-15T04:35:36.334Z,99300.41
2023-02-15T04:38:03.502Z,99302.78
2023-02-15T04:40:30.596Z,99294.44
2023-02-15T04:42:58.698Z,99286.78
2023-02-15T04:45:25.731Z,99288.25
2023-02-15T04:47:52.843Z,99281.31
2023-02-15T04:50:19.899Z,99274.53
2023-02-15T04:52:47.051Z,99280.25
2023-02-15T04:55:17.486Z,99281.44
2023-02-15T04:57:46.882Z,99276.13
2023-02-15T05:00:18.302Z,99277.69
2023-02-15T05:02:54.819Z,99272.03
2023-02-15T05:05:22.251Z,99269.81
2023-02-15T05:07:49.425Z,99277.06
2023-02-15T05:10:17.267Z,99269.81
2023-02-15T05:12:44.313Z,99265.69
2023-02-15T05:15:11.958Z,99272.59
2023-02-15T05:17:39.277Z,99278.38
2023-02-15T05:20:06.963Z,99271.41
2023-02-15T05:22:34.014Z,99271.44
2023-02-15T05:25:19.506Z,99264.94
2023-02-15T05:28:05.412Z,99267.97
2023-02-15T05:30:32.770Z,99268.00
2023-02-15T05:32:59.897Z,99264.22
2023-02-15T05:35:27.020Z,99270.34
2023-02-15T05:37:54.161Z,99276.47
2023-02-15T05:40:21.341Z,99261.53
2023-02-15T05:42:48.394Z,99272.81
2023-02-15T05:45:16.416Z,99276.66
2023-02-15T05:47:43.573Z,99277.75
2023-02-15T05:50:12.284Z,99273.56
2023-02-15T05:52:39.350Z,99277.41
2023-02-15T05:55:06.796Z,99266.25
2023-02-15T05:57:33.871Z,99267.44
2023-02-15T06:00:00.933Z,99270.56
2023-02-15T06:02:28.191Z,99275.19
2023-02-15T06:04:56.752Z,99272.50
2023-02-15T06:07:23.806Z,99269.78
2023-02-15T06:09:50.897Z,99266.97
2023-02-15T06:12:17.966Z,99259.69
2023-02-15T06:14:45.022Z,99267.38
2023-02-15T06:17:12.241Z,99278.06
2023-02-15T06:19:39.506Z,99274.53
2023-02-15T06:22:07.319Z,99274.53
2023-02-15T06:24:34.464Z,99276.97
2023-02-15T06:27:01.552Z,99272.34
2023-02-15T06:29:28.792Z,99274.97
2023-02-15T06:31:56.042Z,99273.78
2023-02-15T06:34:23.192Z,99274.53
2023-02-15T06:36:50.229Z,99273.38
2023-02-15T06:39:17.466Z,99272.22
2023-02-15T06:41:44.510Z,99270.25
2023-02-15T06:44:11.579Z,99267.63
2023-02-15T06:46:38.722Z,99271.00
2023-02-15T06:49:06.792Z,99275.59
2023-02-15T06:51:35.027Z,99268.38
2023-02-15T06:54:02.108Z,99270.25
2023-02-15T06:56:30.400Z,99270.59
2023-02-15T06:58:57.444Z,99274.72
2023-02-15T07:01:26.309Z,99270.81
2023-02-15T07:03:54.255Z,99268.50
2023-02-15T07:06:21.289Z,99262.28
2023-02-15T07:08:48.496Z,99269.50
2023-02-15T07:11:33.996Z,99273.66
2023-02-15T07:14:01.020Z,99263.22
2023-02-15T07:16:28.124Z,99266.59
2023-02-15T07:18:55.203Z,99259.56
2023-02-15T07:21:22.597Z,99259.56
2023-02-15T07:23:49.695Z,99256.06
2023-02-15T07:26:16.776Z,99243.75
2023-02-15T07:28:44.004Z,99238.63
2023-02-15T07:31:12.390Z,99237.41
2023-02-15T07:33:39.463Z,99244.56
2023-02-15T07:36:06.978Z,99241.38
2023-02-15T07:38:36.109Z,99230.50
2023-02-15T07:41:05.568Z,99230.25
2023-02-15T07:43:35.163Z,99228.56
2023-02-15T07:46:06.434Z,99228.75
2023-02-15T07:48:33.490Z,99227.31
2023-02-15T07:51:01.337Z,99219.78
2023-02-15T07:53:28.451Z,99210.63
2023-02-15T07:55:56.073Z,99214.16
2023-02-15T07:58:43.282Z,99208.84
2023-02-15T08:01:10.362Z,99210.38
2023-02-15T08:03:37.519Z,99209.06
2023-02-15T08:06:05.822Z,99202.38
2023-02-15T08:08:35.024Z,99197.13
2023-02-15T08:11:26.622Z,99191.47
2023-02-15T08:13:55.435Z,99193.13
2023-02-15T08:16:48.555Z,99196.03
2023-02-15T08:19:20.822Z,99201.22
2023-02-15T08:21:55.892Z,99190.31
2023-02-15T08:24:24.242Z,99189.28
2023-02-15T08:26:51.819Z,99188.81
2023-02-15T08:29:21.026Z,99188.47
2023-02-15T08:31:48.258Z,99183.66
2023-02-15T08:34:18.706Z,99189.19
2023-02-15T08:36:46.279Z,99179.72
2023-02-15T08:39:15.162Z,99178.75
2023-02-15T08:41:46.821Z,99175.50
2023-02-15T08:44:16.108Z,99176.19
2023-02-15T08:46:45.253Z,99174.91
2023-02-15T08:49:14.647Z,99169.81
2023-02-15T08:51:41.857Z,99165.97
2023-02-15T08:54:11.418Z,99168.09
2023-02-15T08:56:40.700Z,99170.25
2023-02-15T08:59:11.441Z,99166.22
2023-02-15T09:01:38.731Z,99171.34
2023-02-15T09:04:09.612Z,99170.59
2023-02-15T09:06:38.374Z,99160.31
2023-02-15T09:09:05.934Z,99160.00
2023-02-15T09:11:38.459Z,99160.00
2023-02-15T09:14:09.009Z,99160.06
2023-02-15T09:16:38.654Z,99157.00
2023-02-15T09:19:06.192Z,99153.19
2023-02-15T09:21:35.946Z,99148.13
2023-02-15T09:24:05.619Z,99145.47
2023-02-15T09:26:33.805Z,99152.75
2023-02-15T09:29:02.596Z,99150.22
2023-02-15T09:31:32.311Z,99146.34
2023-02-15T09:34:03.716Z,99142.28
2023-02-15T09:36:36.159Z,99143.31
2023-02-15T09:39:11.901Z,99140.91
2023-02-15T09:42:12.915Z,99140.34
2023-02-15T09:44:55.247Z,99141.91
2023-02-15T09:48:16.160Z,99145.44
2023-02-15T09:51:01.183Z,99136.75
2023-02-15T09:53:40.998Z,99138.88
2023-02-15T09:56:17.668Z,99136.56
2023-02-15T09:59:10.008Z,99125.59
2023-02-15T10:01:50.861Z,99130.28
2023-02-15T10:05:01.590Z,99131.97
2023-02-15T10:07:52.699Z,99126.75
2023-02-15T10:10:26.419Z,99126.09
2023-02-15T10:13:14.692Z,99118.56
2023-02-15T10:15:53.748Z,99123.94
2023-02-15T10:18:40.247Z,99115.69
2023-02-15T10:21:41.390Z,99114.59
2023-02-15T10:24:40.538Z,99116.22
2023-02-15T10:27:13.305Z,99101.63
2023-02-15T10:29:50.108Z,99112.13
2023-02-15T10:32:24.418Z,99111.44
2023-02-15T10:35:02.024Z,99101.75
2023-02-15T10:38:03.488Z,99103.03
2023-02-15T10:40:52.151Z,99093.06
2023-02-15T10:43:46.322Z,99097.03
2023-02-15T10:46:32.678Z,99082.56
2023-02-15T10:49:18.252Z,99082.06
2023-02-15T10:52:15.577Z,99081.25
2023-02-15T10:54:54.557Z,99077.00
2023-02-15T10:57:24.213Z,99078.22
2023-02-15T11:00:11.814Z,99081.13
2023-02-15T11:02:53.432Z,99074.34
2023-02-15T11:05:23.456Z,99069.28
2023-02-15T11:07:52.092Z,99075.22
2023-02-15T11:10:45.215Z,99077.44
2023-02-15T11:13:17.990Z,99078.38
2023-02-15T11:15:58.257Z,99077.53
2023-02-15T11:18:31.650Z,99071.44
2023-02-15T11:21:21.984Z,99068.31
2023-02-15T11:23:49.660Z,99067.22
2023-02-15T11:26:36.000Z,99064.59
2023-02-15T11:29:11.899Z,99062.03
2023-02-15T11:32:18.101Z,99064.94
2023-02-15T11:35:12.999Z,99056.84
2023-02-15T11:37:52.644Z,99061.78
2023-02-15T11:40:27.709Z,99052.16
2023-02-15T11:42:57.581Z,99058.75
2023-02-15T11:45:32.702Z,99050.28
2023-02-15T11:48:00.474Z,99042.94
2023-02-15T11:50:30.591Z,99049.00
2023-02-15T11:53:00.187Z,99043.72
2023-02-15T11:55:29.431Z,99036.25
2023-02-15T11:58:08.127Z,99040.38
2023-02-15T12:00:44.833Z,99030.56
2023-02-15T12:03:29.214Z,99036.63
2023-02-15T12:06:02.649Z,99029.25
2023-02-15T12:08:39.509Z,99035.41
2023-02-15T12:11:37.252Z,99028.44
2023-02-15T12:14:09.259Z,99029.03
2023-02-15T12:16:48.299Z,99029.56
2023-02-15T12:19:30.267Z,99020.56
2023-02-15T12:21:58.574Z,99022.47
2023-02-15T12:24:28.151Z,99015.47
2023-02-15T12:27:02.652Z,99011.69
2023-02-15T12:29:32.427Z,99014.66
2023-02-15T12:32:00.126Z,99018.91
2023-02-15T12:34:31.731Z,99009.38
2023-02-15T12:37:03.182Z,99019.63
2023-02-15T12:39:31.784Z,99012.72
2023-02-15T12:42:15.389Z,99015.97
2023-02-15T12:44:55.439Z,99015.59
2023-02-15T12:47:28.911Z,99012.25
2023-02-15T12:50:17.988Z,99018.19
2023-02-15T12:52:47.609Z,99008.88
2023-02-15T12:55:25.224Z,99010.97
2023-02-15T12:58:20.734Z,99006.44
2023-02-15T13:00:48.196Z,99004.44
2023-02-15T13:03:24.920Z,99000.81
2023-02-15T13:05:54.115Z,99003.63
2023-02-15T13:08:28.699Z,99001.09
2023-02-15T13:10:58.794Z,99004.09
2023-02-15T13:13:28.252Z,98992.63
2023-02-15T13:15:59.640Z,99000.53
2023-02-15T13:18:40.934Z,99010.88
2023-02-15T13:21:14.200Z,99011.09
2023-02-15T13:23:45.789Z,99007.66
2023-02-15T13:26:18.209Z,99004.91
2023-02-15T13:28:51.119Z,99005.44
2023-02-15T13:31:24.398Z,99006.91
2023-02-15T13:34:01.071Z,99005.66
2023-02-15T13:37:06.920Z,98998.44
2023-02-15T13:39:45.729Z,98997.75
2023-02-15T13:42:22.217Z,99003.09
2023-02-15T13:45:34.720Z,99002.72
2023-02-15T13:48:34.106Z,98999.28
2023-02-15T13:51:13.536Z,99000.38
2023-02-15T13:53:47.440Z,99000.69
2023-02-15T13:56:22.532Z,98995.47
2023-02-15T13:59:19.644Z,98986.94
2023-02-15T14:01:56.942Z,98994.59
2023-02-15T14:04:58.881Z,99002.56
2023-02-15T14:07:52.353Z,99003.22
2023-02-15T14:10:26.438Z,98996.47
2023-02-15T14:13:32.510Z,99004.50
2023-02-15T14:16:06.814Z,98994.59
2023-02-15T14:18:42.508Z,98999.63
2023-02-15T14:21:32.179Z,98993.22
2023-02-15T14:24:16.594Z,98996.06
2023-02-15T14:26:53.278Z,99002.13
2023-02-15T14:29:58.777Z,98988.38
2023-02-15T14:32:43.026Z,98987.34
2023-02-15T14:35:21.205Z,98996.81
2023-02-15T14:38:17.965Z,98997.31
2023-02-15T14:41:09.841Z,98996.13
2023-02-15T14:43:47.926Z,98993.16
2023-02-15T14:46:31.115Z,98998.38
2023-02-15T14:49:03.886Z,98999.13
2023-02-15T14:51:43.954Z,98996.47
2023-02-15T14:54:12.255Z,99004.75
2023-02-15T14:56:41.955Z,99002.53
2023-02-15T14:59:17.222Z,99001.59
2023-02-15T15:01:54.166Z,98998.91
2023-02-15T15:04:30.226Z,98999.47
2023-02-15T15:07:09.087Z,98988.81
2023-02-15T15:09:41.822Z,98985.66
2023-02-15T15:12:36.850Z,98969.28
2023-02-15T15:15:05.084Z,98975.16
2023-02-15T15:17:37.529Z,98975.47
2023-02-15T15:20:08.515Z,98980.75
2023-02-15T15:22:37.051Z,98987.75
2023-02-15T15:25:41.923Z,98975.78
2023-02-15T15:28:09.175Z,98972.56
2023-02-15T15:30:36.120Z,98973.09
2023-02-15T15:33:18.691Z,98963.16
2023-02-15T15:36:26.774Z,98961.19
2023-02-15T15:39:05.269Z,98968.44
2023-02-15T15:41:43.450Z,98961.75
2023-02-15T15:44:41.942Z,98959.28
2023-02-15T15:47:20.970Z,98961.09
2023-02-15T15:49:48.656Z,98960.91
2023-02-15T15:52:21.114Z,98951.72
2023-02-15T15:54:53.535Z,98954.75
2023-02-15T15:57:27.442Z,98952.56
2023-02-15T15:59:54.739Z,98946.84
2023-02-15T16:02:21.781Z,98952.63
2023-02-15T16:04:49.086Z,98945.94
2023-02-15T16:07:19.171Z,98948.91
2023-02-15T16:10:02.725Z,98950.44
2023-02-15T16:12:32.725Z,98949.47
2023-02-15T16:15:05.878Z,98955.69
2023-02-15T16:17:34.577Z,98954.66
2023-02-15T16:20:19.559Z,98953.94
2023-02-15T16:22:55.101Z,98952.19
2023-02-15T16:25:37.780Z,98954.22
2023-02-15T16:28:19.571Z,98950.22
2023-02-15T16:30:46.832Z,98950.22
2023-02-15T16:33:18.110Z,98965.63
2023-02-15T16:35:56.787Z,98956.16
2023-02-15T16:38:52.263Z,98960.09
2023-02-15T16:41:26.317Z,98952.09
2023-02-15T16:43:54.427Z,98950.00
2023-02-15T16:46:28.199Z,98952.91
2023-02-15T16:49:02.359Z,98951.63
2023-02-15T16:51:31.305Z,98958.25
2023-02-15T16:54:04.357Z,98955.69
2023-02-15T16:56:32.283Z,98954.09
2023-02-15T16:58:59.774Z,98952.56
2023-02-15T17:01:31.957Z,98958.41
2023-02-15T17:04:32.503Z,98953.56
2023-02-15T17:07:17.539Z,98960.16
2023-02-15T17:09:51.745Z,98956.78
2023-02-15T17:12:47.738Z,98952.00
2023-02-15T17:15:59.348Z,98956.03
2023-02-15T17:18:45.155Z,98956.94
2023-02-15T17:21:20.823Z,98953.41
2023-02-15T17:23:52.670Z,98960.75
2023-02-15T17:26:25.543Z,98964.03
2023-02-15T17:28:57.257Z,98955.19
2023-02-15T17:31:29.566Z,98962.94
2023-02-15T17:33:59.249Z,98955.38
2023-02-15T17:36:30.285Z,98959.91
2023-02-15T17:39:20.565Z,98958.16
2023-02-15T17:41:48.367Z,98962.28
2023-02-15T17:44:16.426Z,98968.38
2023-02-15T17:46:44.641Z,98962.41
2023-02-15T17:49:24.079Z,98962.91
2023-02-15T17:51:51.525Z,98973.94
2023-02-15T17:54:37.216Z,98968.50
2023-02-15T17:57:11.622Z,98964.47
2023-02-15T17:59:57.344Z,98959.22
2023-02-15T18:02:42.825Z,98955.56
2023-02-15T18:05:33.304Z,98963.66
2023-02-15T18:08:19.234Z,98966.63
2023-02-15T18:11:05.006Z,98970.19
2023-02-15T18:13:32.265Z,98969.59
2023-02-15T18:15:59.850Z,98962.59
2023-02-15T18:18:28.174Z,98961.81
2023-02-15T18:20:55.419Z,98964.59
2023-02-15T18:23:22.491Z,98964.75
2023-02-15T18:25:49.553Z,98964.38
2023-02-15T18:28:16.581Z,98969.88
2023-02-15T18:30:43.960Z,98969.47
2023-02-15T18:33:44.627Z,98968.44
2023-02-15T18:36:16.900Z,98963.63
2023-02-15T18:38:44.115Z,98978.00
2023-02-15T18:41:17.501Z,98979.69
2023-02-15T18:43:45.024Z,98980.75
2023-02-15T18:46:12.454Z,98971.00
2023-02-15T18:48:39.525Z,98974.66
2023-02-15T18:51:15.427Z,98973.00
2023-02-15T18:53:42.581Z,98973.38
2023-02-15T18:56:15.485Z,98972.06
2023-02-15T18:58:43.003Z,98972.72
2023-02-15T19:01:16.656Z,98969.13
2023-02-15T19:03:48.408Z,98973.66
2023-02-15T19:06:18.107Z,98974.72
2023-02-15T19:08:47.095Z,98966.78
2023-02-15T19:11:23.701Z,98973.69
2023-02-15T19:13:52.257Z,98967.53
2023-02-15T19:16:30.855Z,98957.72
2023-02-15T19:18:58.184Z,98956.53
2023-02-15T19:21:25.757Z,98955.78
2023-02-15T19:24:04.911Z,98955.19
2023-02-15T19:26:44.528Z,98956.72
2023-02-15T19:29:14.029Z,98957.31
2023-02-15T19:31:41.583Z,98960.03
2023-02-15T19:34:16.629Z,98943.03
2023-02-15T19:36:45.369Z,98947.09
2023-02-15T19:39:23.432Z,98939.16
2023-02-15T19:41:50.865Z,98945.47
2023-02-15T19:44:18.307Z,98936.91
2023-02-15T19:46:45.917Z,98933.31
2023-02-15T19:49:13.100Z,98931.06
2023-02-15T19:51:40.304Z,98929.25
2023-02-15T19:54:20.250Z,98932.84
2023-02-15T19:56:47.358Z,98934.66
2023-02-15T19:59:26.637Z,98922.94
2023-02-15T20:01:54.235Z,98931.19
2023-02-15T20:04:21.692Z,98930.28
2023-02-15T20:06:50.118Z,98935.88
2023-02-15T20:09:23.876Z,98924.75
2023-02-15T20:11:54.581Z,98927.13
2023-02-15T20:14:22.215Z,98929.38
2023-02-15T20:16:49.838Z,98925.91
2023-02-15T20:19:17.388Z,98930.41
2023-02-15T20:21:45.904Z,98930.72
2023-02-15T20:24:16.407Z,98925.91
2023-02-15T20:26:43.952Z,98925.59
2023-02-15T20:29:15.328Z,98919.84
2023-02-15T20:31:42.853Z,98930.06
2023-02-15T20:34:10.635Z,98925.69
2023-02-15T20:36:38.515Z,98918.47
2023-02-15T20:39:14.442Z,98917.72
2023-02-15T20:41:47.575Z,98916.34
2023-02-15T20:44:17.033Z,98913.66
2023-02-15T20:46:44.159Z,98910.78
2023-02-15T20:49:11.249Z,98914.69
2023-02-15T20:51:40.603Z,98910.19
2023-02-15T20:54:16.308Z,98916.63
2023-02-15T20:56:43.946Z,98916.91
2023-02-15T20:59:25.842Z,98914.81
2023-02-15T21:01:57.341Z,98908.47
2023-02-15T21:04:30.010Z,98906.66
2023-02-15T21:06:57.254Z,98914.13
2023-02-15T21:09:24.311Z,98922.50
2023-02-15T21:11:53.213Z,98916.81
2023-02-15T21:14:22.473Z,98911.91
2023-02-15T21:16:50.447Z,98899.09
2023-02-15T21:19:22.059Z,98914.53
2023-02-15T21:21:51.526Z,98906.72
2023-02-15T21:24:26.533Z,98904.03
2023-02-15T21:26:54.327Z,98907.19
2023-02-15T21:29:24.244Z,98895.00
2023-02-15T21:31:51.465Z,98893.38
2023-02-15T21:34:18.817Z,98895.19
2023-02-15T21:36:47.062Z,98890.69
2023-02-15T21:39:23.322Z,98895.63
2023-02-15T21:42:10.851Z,98890.09
2023-02-15T21:44:56.500Z,98893.13
2023-02-15T21:47:49.421Z,98887.97
2023-02-15T21:50:37.413Z,98892.19
2023-02-15T21:53:06.385Z,98887.97
2023-02-15T21:55:33.532Z,98898.41
2023-02-15T21:58:01.015Z,98899.16
2023-02-15T22:00:29.506Z,98888.94
2023-02-15T22:02:58.588Z,98880.09
2023-02-15T22:05:29.652Z,98886.78
2023-02-15T22:08:00.078Z,98882.75
2023-02-15T22:10:29.735Z,98887.38
2023-02-15T22:12:57.350Z,98883.91
2023-02-15T22:15:26.827Z,98882.97
2023-02-15T22:17:53.953Z,98886.88
2023-02-15T22:20:23.085Z,98888.94
2023-02-15T22:22:50.905Z,98887.56
2023-02-15T22:25:20.444Z,98887.22
2023-02-15T22:27:48.352Z,98887.97
2023-02-15T22:30:18.359Z,98892.31
2023-02-15T22:32:45.466Z,98890.81
2023-02-15T22:35:17.695Z,98896.66
2023-02-15T22:37:44.875Z,98885.97
2023-02-15T22:40:15.787Z,98891.50
2023-02-15T22:42:46.396Z,98885.47
2023-02-15T22:45:18.867Z,98886.97
2023-02-15T22:47:47.668Z,98883.44
2023-02-15T22:50:17.562Z,98885.53
2023-02-15T22:52:44.610Z,98886.72
2023-02-15T22:55:23.092Z,98884.13
2023-02-15T22:57:54.764Z,98880.47
2023-02-15T23:00:29.518Z,98886.66
2023-02-15T23:02:56.644Z,98889.34
2023-02-15T23:05:29.335Z,98895.91
2023-02-15T23:07:57.823Z,98893.94
2023-02-15T23:10:26.568Z,98890.50
2023-02-15T23:13:17.331Z,98889.75
2023-02-15T23:15:48.872Z,98893.47
2023-02-15T23:18:18.775Z,98893.25
2023-02-15T23:20:48.450Z,98887.97
2023-02-15T23:23:16.114Z,98898.56
2023-02-15T23:25:43.415Z,98907.38
2023-02-15T23:28:39.999Z,98904.25
2023-02-15T23:31:22.561Z,98904.78
2023-02-15T23:33:50.285Z,98902.97
2023-02-15T23:36:34.165Z,98902.66
2023-02-15T23:39:36.058Z,98890.25
2023-02-15T23:42:06.594Z,98905.69
2023-02-15T23:44:34.324Z,98885.84
2023-02-15T23:47:01.530Z,98890.91
2023-02-15T23:49:29.003Z,98896.09
2023-02-15T23:51:57.886Z,98897.28
2023-02-15T23:54:26.109Z,98889.94
2023-02-15T23:56:56.022Z,98896.09
2023-02-15T23:59:28.014Z,98897.72
